createdAt,value
2017-04-20T00:00:11.135Z,0
2017-04-20T00:01:23.669Z,0
2017-04-20T00:02:36.163Z,0
2017-04-20T00:03:48.692Z,0
2017-04-20T00:05:01.235Z,0
2017-04-20T00:06:13.773Z,0
2017-04-20T00:07:26.254Z,0
2017-04-20T00:08:38.751Z,0
2017-04-20T00:09:50.991Z,0
2017-04-20T00:11:03.518Z,0
2017-04-20T00:12:15.454Z,0
2017-04-20T00:13:28.128Z,0
2017-04-20T00:14:41.004Z,0
2017-04-20T00:15:52.923Z,0
2017-04-20T00:17:05.452Z,0
2017-04-20T00:18:17.992Z,0
2017-04-20T00:19:30.492Z,0
2017-04-20T00:20:43.008Z,0
2017-04-20T00:21:55.529Z,0
2017-04-20T00:23:07.749Z,0
2017-04-20T00:24:20.273Z,0
2017-04-20T00:25:32.820Z,0
2017-04-20T00:26:44.718Z,0
2017-04-20T00:27:57.208Z,0
2017-04-20T00:29:09.723Z,0
2017-04-20T00:30:22.251Z,0
2017-04-20T00:31:34.766Z,0
2017-04-20T00:32:47.545Z,0
2017-04-20T00:34:00.097Z,0
2017-04-20T00:35:12.284Z,0
2017-04-20T00:36:24.784Z,0
2017-04-20T00:37:37.275Z,0
2017-04-20T00:38:49.800Z,0
2017-04-20T00:40:02.350Z,0
2017-04-20T00:41:14.883Z,0
2017-04-20T00:42:27.092Z,0
2017-04-20T00:43:39.323Z,0
2017-04-20T00:44:51.542Z,0
2017-04-20T00:46:04.088Z,0
2017-04-20T00:47:16.621Z,0
2017-04-20T00:48:28.816Z,0
2017-04-20T00:49:41.343Z,0
2017-04-20T00:50:53.257Z,0
2017-04-20T00:52:05.481Z,0
2017-04-20T00:53:17.971Z,0
2017-04-20T00:54:30.488Z,0
2017-04-20T00:55:43.018Z,0
2017-04-20T00:56:55.237Z,0
2017-04-20T00:58:07.760Z,0
2017-04-20T00:59:20.247Z,0
2017-04-20T01:00:32.768Z,0
2017-04-20T01:01:45.543Z,0
2017-04-20T01:02:58.131Z,0
2017-04-20T01:04:10.638Z,0
2017-04-20T01:05:23.159Z,0
2017-04-20T01:06:35.077Z,0
2017-04-20T01:07:47.578Z,0
2017-04-20T01:08:59.771Z,0
2017-04-20T01:10:12.296Z,0
2017-04-20T01:11:24.802Z,0
2017-04-20T01:12:37.360Z,0
2017-04-20T01:13:49.870Z,0
2017-04-20T01:15:02.376Z,0
2017-04-20T01:16:15.197Z,0
2017-04-20T01:17:27.709Z,0
2017-04-20T01:18:40.216Z,0
2017-04-20T01:19:52.877Z,0
2017-04-20T01:21:04.773Z,0
2017-04-20T01:22:17.590Z,0
2017-04-20T01:23:30.100Z,0
2017-04-20T01:24:42.615Z,0
2017-04-20T01:25:55.116Z,0
2017-04-20T01:27:07.582Z,0
2017-04-20T01:28:20.082Z,0
2017-04-20T01:29:32.599Z,0
2017-04-20T01:30:45.098Z,0
2017-04-20T01:31:57.332Z,0
2017-04-20T01:33:09.881Z,0
2017-04-20T01:34:22.382Z,0
2017-04-20T01:35:34.375Z,0
2017-04-20T01:36:46.929Z,0
2017-04-20T01:37:59.153Z,0
2017-04-20T01:39:11.695Z,0
2017-04-20T01:40:24.212Z,0
2017-04-20T01:41:36.454Z,0
2017-04-20T01:42:48.974Z,0
2017-04-20T01:44:01.499Z,0
2017-04-20T01:45:13.996Z,0
2017-04-20T01:46:26.195Z,0
2017-04-20T01:47:38.691Z,0
2017-04-20T01:48:50.933Z,0
2017-04-20T01:50:03.429Z,0
2017-04-20T01:51:15.968Z,0
2017-04-20T01:52:28.492Z,0
2017-04-20T01:53:41.194Z,0
2017-04-20T01:54:53.405Z,0
2017-04-20T01:56:05.930Z,0
2017-04-20T01:57:18.432Z,0
2017-04-20T01:58:30.654Z,0
2017-04-20T01:59:43.168Z,0
2017-04-20T02:00:55.671Z,0
2017-04-20T02:02:08.218Z,0
2017-04-20T02:03:20.737Z,0
2017-04-20T02:04:32.329Z,0
2017-04-20T02:05:44.554Z,0
2017-04-20T02:06:56.778Z,0
2017-04-20T02:08:09.321Z,0
2017-04-20T02:09:21.843Z,0
2017-04-20T02:10:34.360Z,0
2017-04-20T02:11:46.908Z,0
2017-04-20T02:12:58.227Z,0
2017-04-20T02:14:10.752Z,0
2017-04-20T02:15:23.246Z,0
2017-04-20T02:16:35.739Z,0
2017-04-20T02:17:48.237Z,0
2017-04-20T02:19:00.801Z,0
2017-04-20T02:20:13.305Z,0
2017-04-20T02:21:25.832Z,0
2017-04-20T02:22:38.343Z,0
2017-04-20T02:23:50.540Z,0
2017-04-20T02:25:03.063Z,0
2017-04-20T02:26:15.336Z,0
2017-04-20T02:27:27.903Z,0
2017-04-20T02:28:40.398Z,0
2017-04-20T02:29:52.649Z,0
2017-04-20T02:31:04.894Z,0
2017-04-20T02:32:17.380Z,0
2017-04-20T02:33:29.907Z,0
2017-04-20T02:34:42.110Z,0
2017-04-20T02:35:54.624Z,0
2017-04-20T02:37:07.120Z,0
2017-04-20T02:38:19.640Z,0
2017-04-20T02:39:31.828Z,0
2017-04-20T02:40:44.336Z,0
2017-04-20T02:41:56.553Z,0
2017-04-20T02:43:09.321Z,0
2017-04-20T02:44:21.970Z,0
2017-04-20T02:45:34.641Z,0
2017-04-20T02:46:47.171Z,0
2017-04-20T02:47:59.707Z,0
2017-04-20T02:49:12.505Z,0
2017-04-20T02:50:24.706Z,0
2017-04-20T02:51:37.221Z,0
2017-04-20T02:52:49.738Z,0
2017-04-20T02:54:01.961Z,0
2017-04-20T02:55:14.158Z,0
2017-04-20T02:56:26.684Z,0
2017-04-20T02:57:39.230Z,0
2017-04-20T02:58:51.781Z,0
2017-04-20T03:00:04.317Z,0
2017-04-20T03:01:16.837Z,0
2017-04-20T03:02:29.148Z,0
2017-04-20T03:03:41.680Z,0
2017-04-20T03:04:54.501Z,0
2017-04-20T03:06:06.999Z,0
2017-04-20T03:07:19.222Z,0
2017-04-20T03:08:31.759Z,0
2017-04-20T03:09:44.255Z,0
2017-04-20T03:10:56.458Z,0
2017-04-20T03:12:08.954Z,0
2017-04-20T03:13:21.517Z,0
2017-04-20T03:14:33.736Z,0
2017-04-20T03:15:46.263Z,0
2017-04-20T03:16:58.192Z,0
2017-04-20T03:18:10.709Z,0
2017-04-20T03:19:23.197Z,0
2017-04-20T03:20:35.723Z,0
2017-04-20T03:21:48.264Z,4
2017-04-20T03:23:00.769Z,4
2017-04-20T03:24:13.286Z,0
2017-04-20T03:25:25.811Z,4
2017-04-20T03:26:38.304Z,4
2017-04-20T03:27:50.798Z,4
2017-04-20T03:29:03.323Z,4
2017-04-20T03:30:15.895Z,8
2017-04-20T03:31:28.128Z,8
2017-04-20T03:32:40.609Z,12
2017-04-20T03:33:53.135Z,12
2017-04-20T03:35:05.354Z,16
2017-04-20T03:36:17.570Z,20
2017-04-20T03:37:30.666Z,20
2017-04-20T03:38:43.307Z,28
2017-04-20T03:39:55.604Z,32
2017-04-20T03:41:07.803Z,36
2017-04-20T03:42:20.291Z,44
2017-04-20T03:43:32.801Z,52
2017-04-20T03:44:45.017Z,60
2017-04-20T03:45:57.217Z,72
2017-04-20T03:47:09.436Z,84
2017-04-20T03:48:21.681Z,96
2017-04-20T03:49:34.202Z,112
2017-04-20T03:50:46.716Z,132
2017-04-20T03:51:59.216Z,152
2017-04-20T03:53:11.779Z,172
2017-04-20T03:54:23.987Z,196
2017-04-20T03:55:36.483Z,220
2017-04-20T03:56:49.329Z,248
2017-04-20T03:58:01.871Z,280
2017-04-20T03:59:14.647Z,312
2017-04-20T04:00:27.155Z,348
2017-04-20T04:01:39.679Z,388
2017-04-20T04:02:52.185Z,428
2017-04-20T04:04:04.675Z,472
2017-04-20T04:05:17.199Z,520
2017-04-20T04:06:29.720Z,576
2017-04-20T04:07:42.263Z,632
2017-04-20T04:08:54.787Z,696
2017-04-20T04:10:07.329Z,764
2017-04-20T04:11:19.855Z,832
2017-04-20T04:12:32.372Z,908
2017-04-20T04:13:45.022Z,976
2017-04-20T04:14:57.863Z,1040
2017-04-20T04:16:10.328Z,1100
2017-04-20T04:17:22.837Z,1152
2017-04-20T04:18:35.377Z,1204
2017-04-20T04:19:47.872Z,1268
2017-04-20T04:21:00.321Z,1340
2017-04-20T04:22:12.839Z,1412
2017-04-20T04:23:25.356Z,1492
2017-04-20T04:24:37.862Z,1584
2017-04-20T04:25:50.377Z,1664
2017-04-20T04:27:02.593Z,1756
2017-04-20T04:28:15.111Z,1844
2017-04-20T04:29:27.643Z,1924
2017-04-20T04:30:39.913Z,1988
2017-04-20T04:31:52.751Z,2048
2017-04-20T04:33:05.329Z,2096
2017-04-20T04:34:17.245Z,2136
2017-04-20T04:35:29.751Z,2180
2017-04-20T04:36:41.935Z,2240
2017-04-20T04:37:54.414Z,2568
2017-04-20T04:39:06.932Z,2696
2017-04-20T04:40:19.423Z,2400
2017-04-20T04:41:31.923Z,2616
2017-04-20T04:42:44.381Z,2732
2017-04-20T04:43:56.916Z,2728
2017-04-20T04:45:09.457Z,2852
2017-04-20T04:46:21.678Z,2724
2017-04-20T04:47:33.903Z,2768
2017-04-20T04:48:46.451Z,2892
2017-04-20T04:49:58.651Z,2972
2017-04-20T04:51:11.316Z,3080
2017-04-20T04:52:23.832Z,3212
2017-04-20T04:53:36.009Z,3312
2017-04-20T04:54:48.508Z,3452
2017-04-20T04:56:01.046Z,3548
2017-04-20T04:57:13.563Z,3604
2017-04-20T04:58:25.768Z,3636
2017-04-20T04:59:38.262Z,3560
2017-04-20T05:00:50.458Z,3516
2017-04-20T05:02:02.682Z,3488
2017-04-20T05:03:14.904Z,3464
2017-04-20T05:04:27.413Z,3468
2017-04-20T05:05:39.613Z,3456
2017-04-20T05:06:52.122Z,3420
2017-04-20T05:08:04.638Z,3472
2017-04-20T05:09:17.226Z,3476
2017-04-20T05:10:30.001Z,3460
2017-04-20T05:11:42.217Z,3512
2017-04-20T05:12:54.439Z,3528
2017-04-20T05:14:06.973Z,3520
2017-04-20T05:15:19.505Z,3524
2017-04-20T05:16:31.749Z,3516
2017-04-20T05:17:44.279Z,3480
2017-04-20T05:18:56.804Z,3460
2017-04-20T05:20:09.021Z,3600
2017-04-20T05:21:20.939Z,3732
2017-04-20T05:22:33.469Z,3800
2017-04-20T05:23:45.973Z,3836
2017-04-20T05:24:58.530Z,3856
2017-04-20T05:26:11.072Z,3852
2017-04-20T05:27:23.714Z,3884
2017-04-20T05:28:36.243Z,3956
2017-04-20T05:29:48.764Z,4072
2017-04-20T05:31:01.297Z,4148
2017-04-20T05:32:13.504Z,4184
2017-04-20T05:33:25.419Z,4132
2017-04-20T05:34:37.965Z,4060
2017-04-20T05:35:50.183Z,4132
2017-04-20T05:37:02.711Z,4180
2017-04-20T05:38:14.914Z,4160
2017-04-20T05:39:27.427Z,4184
2017-04-20T05:40:39.917Z,4196
2017-04-20T05:41:52.449Z,4240
2017-04-20T05:43:04.995Z,4244
2017-04-20T05:44:17.515Z,4332
2017-04-20T05:45:30.062Z,4268
2017-04-20T05:46:42.554Z,4928
2017-04-20T05:47:55.349Z,6704
2017-04-20T05:49:07.593Z,5312
2017-04-20T05:50:20.121Z,4904
2017-04-20T05:51:32.662Z,4844
2017-04-20T05:52:45.184Z,4904
2017-04-20T05:53:57.679Z,4596
2017-04-20T05:55:10.192Z,4720
2017-04-20T05:56:22.150Z,4968
2017-04-20T05:57:34.661Z,5092
2017-04-20T05:58:47.412Z,5388
2017-04-20T05:59:59.908Z,7224
2017-04-20T06:01:12.126Z,10976
2017-04-20T06:02:24.650Z,10184
2017-04-20T06:03:37.170Z,8256
2017-04-20T06:04:49.383Z,8260
2017-04-20T06:06:02.038Z,6944
2017-04-20T06:07:14.365Z,6296
2017-04-20T06:08:26.909Z,6260
2017-04-20T06:09:39.417Z,6844
2017-04-20T06:10:51.950Z,6580
2017-04-20T06:12:04.460Z,6452
2017-04-20T06:13:16.658Z,6464
2017-04-20T06:14:28.885Z,6644
2017-04-20T06:15:41.109Z,6840
2017-04-20T06:16:53.654Z,6840
2017-04-20T06:18:05.876Z,7612
2017-04-20T06:19:18.120Z,8104
2017-04-20T06:20:30.897Z,8844
2017-04-20T06:21:43.110Z,9924
2017-04-20T06:22:55.310Z,10120
2017-04-20T06:24:07.528Z,10232
2017-04-20T06:25:20.202Z,10260
2017-04-20T06:26:32.743Z,10308
2017-04-20T06:27:44.957Z,10444
2017-04-20T06:28:57.161Z,10556
2017-04-20T06:30:09.675Z,10516
2017-04-20T06:31:21.898Z,10612
2017-04-20T06:32:34.398Z,10632
2017-04-20T06:33:46.612Z,10816
2017-04-20T06:34:59.169Z,10788
2017-04-20T06:36:11.742Z,10756
2017-04-20T06:37:24.257Z,10812
2017-04-20T06:38:36.456Z,11076
2017-04-20T06:39:48.666Z,11184
2017-04-20T06:41:01.195Z,11368
2017-04-20T06:42:14.024Z,11440
2017-04-20T06:43:26.565Z,11632
2017-04-20T06:44:39.225Z,11788
2017-04-20T06:45:51.533Z,11904
2017-04-20T06:47:04.074Z,12100
2017-04-20T06:48:16.273Z,12400
2017-04-20T06:49:28.808Z,12592
2017-04-20T06:50:41.337Z,12444
2017-04-20T06:51:53.857Z,12352
2017-04-20T06:53:06.404Z,12388
2017-04-20T06:54:18.920Z,12208
2017-04-20T06:55:31.123Z,12116
2017-04-20T06:56:43.666Z,12020
2017-04-20T06:57:56.183Z,12140
2017-04-20T06:59:08.386Z,12396
2017-04-20T07:00:20.610Z,13016
2017-04-20T07:01:33.162Z,14160
2017-04-20T07:02:45.691Z,16148
2017-04-20T07:03:58.220Z,18528
2017-04-20T07:05:11.263Z,19232
2017-04-20T07:06:23.761Z,18368
2017-04-20T07:07:36.300Z,17632
2017-04-20T07:08:48.829Z,13952
2017-04-20T07:10:01.079Z,13436
2017-04-20T07:11:13.017Z,11320
2017-04-20T07:12:25.541Z,13564
2017-04-20T07:13:37.791Z,11548
2017-04-20T07:14:50.330Z,12792
2017-04-20T07:16:02.850Z,13100
2017-04-20T07:17:15.391Z,13784
2017-04-20T07:18:27.614Z,13872
2017-04-20T07:19:40.158Z,14488
2017-04-20T07:20:52.387Z,15860
2017-04-20T07:22:04.630Z,21824
2017-04-20T07:23:17.151Z,28288
2017-04-20T07:24:29.947Z,40320
2017-04-20T07:25:42.568Z,44928
2017-04-20T07:26:55.113Z,47392
2017-04-20T07:28:07.389Z,51584
2017-04-20T07:29:19.906Z,49344
2017-04-20T07:30:32.401Z,48704
2017-04-20T07:31:44.623Z,49024
2017-04-20T07:32:57.161Z,49152
2017-04-20T07:34:09.065Z,51360
2017-04-20T07:35:21.288Z,54144
2017-04-20T07:36:34.137Z,53824
2017-04-20T07:37:46.078Z,54336
2017-04-20T07:38:58.310Z,55968
2017-04-20T07:40:10.269Z,52320
2017-04-20T07:41:22.790Z,52448
2017-04-20T07:42:34.438Z,56480
2017-04-20T07:43:46.678Z,55456
2017-04-20T07:44:58.908Z,57152
2017-04-20T07:46:11.191Z,56960
2017-04-20T07:47:23.744Z,58592
2017-04-20T07:48:35.969Z,57632
2017-04-20T07:49:48.205Z,59744
2017-04-20T07:51:00.161Z,58720
2017-04-20T07:52:12.406Z,58720
2017-04-20T07:53:24.628Z,61152
2017-04-20T07:54:36.577Z,62816
2017-04-20T07:55:48.820Z,62016
2017-04-20T07:57:01.039Z,64960
2017-04-20T07:58:12.663Z,65568
2017-04-20T07:59:25.205Z,64416
2017-04-20T08:00:37.452Z,65472
2017-04-20T08:01:49.714Z,61664
2017-04-20T08:03:01.949Z,30048
2017-04-20T08:04:13.734Z,9628
2017-04-20T08:05:26.262Z,9516
2017-04-20T08:06:38.197Z,9748
2017-04-20T08:07:50.425Z,9632
2017-04-20T08:09:02.649Z,9360
2017-04-20T08:10:14.559Z,9316
2017-04-20T08:11:27.105Z,9624
2017-04-20T08:12:39.654Z,10200
2017-04-20T08:13:51.580Z,10464
2017-04-20T08:15:03.805Z,11688
2017-04-20T08:16:15.726Z,12956
2017-04-20T08:17:28.247Z,12220
2017-04-20T08:18:40.195Z,11048
2017-04-20T08:19:52.112Z,10056
2017-04-20T08:21:04.348Z,9596
2017-04-20T08:22:16.579Z,9456
2017-04-20T08:23:28.847Z,9476
2017-04-20T08:24:41.339Z,9848
2017-04-20T08:25:53.271Z,10528
2017-04-20T08:27:05.210Z,11112
2017-04-20T08:28:17.751Z,9828
2017-04-20T08:29:30.011Z,9536
2017-04-20T08:30:42.540Z,9088
2017-04-20T08:31:54.173Z,9152
2017-04-20T08:33:06.122Z,9284
2017-04-20T08:34:18.063Z,9376
2017-04-20T08:35:30.020Z,9368
2017-04-20T08:36:42.552Z,9192
2017-04-20T08:37:55.090Z,9024
2017-04-20T08:39:07.316Z,9132
2017-04-20T08:40:19.839Z,9096
2017-04-20T08:41:32.086Z,9280
2017-04-20T08:42:44.976Z,9696
2017-04-20T08:43:57.499Z,10316
2017-04-20T08:45:09.498Z,10620
2017-04-20T08:46:22.020Z,10224
2017-04-20T08:47:33.961Z,9928
2017-04-20T08:48:45.886Z,10148
2017-04-20T08:49:58.089Z,10700
2017-04-20T08:51:10.031Z,11236
2017-04-20T08:52:21.983Z,10392
2017-04-20T08:53:34.202Z,10308
2017-04-20T08:54:46.442Z,10400
2017-04-20T08:55:58.363Z,10464
2017-04-20T08:57:10.579Z,10808
2017-04-20T08:58:23.054Z,10956
2017-04-20T08:59:35.270Z,11136
2017-04-20T09:00:47.488Z,12276
2017-04-20T09:01:59.119Z,13140
2017-04-20T09:03:10.740Z,14320
2017-04-20T09:04:23.613Z,14856
2017-04-20T09:05:36.157Z,15324
2017-04-20T09:06:48.675Z,16036
2017-04-20T09:08:01.217Z,16348
2017-04-20T09:09:13.450Z,17924
2017-04-20T09:10:25.366Z,19040
2017-04-20T09:11:37.633Z,20000
2017-04-20T09:12:50.175Z,20608
2017-04-20T09:14:02.425Z,21440
2017-04-20T09:15:14.043Z,22464
2017-04-20T09:16:26.583Z,22272
2017-04-20T09:17:38.518Z,20032
2017-04-20T09:18:50.441Z,19040
2017-04-20T09:20:02.675Z,18272
2017-04-20T09:21:14.622Z,17420
2017-04-20T09:22:27.147Z,13880
2017-04-20T09:23:38.822Z,12884
2017-04-20T09:24:51.693Z,12984
2017-04-20T09:26:03.335Z,12272
2017-04-20T09:27:15.556Z,11304
2017-04-20T09:28:27.154Z,11540
2017-04-20T09:29:39.076Z,12228
2017-04-20T09:30:51.622Z,12832
2017-04-20T09:32:04.143Z,13348
2017-04-20T09:33:16.064Z,15332
2017-04-20T09:34:27.701Z,14092
2017-04-20T09:35:39.635Z,14424
2017-04-20T09:36:51.574Z,14880
2017-04-20T09:38:03.497Z,15008
2017-04-20T09:39:15.422Z,15164
2017-04-20T09:40:27.965Z,15392
2017-04-20T09:41:40.199Z,15352
2017-04-20T09:42:52.707Z,14772
2017-04-20T09:44:04.469Z,15400
2017-04-20T09:45:17.094Z,15816
2017-04-20T09:46:29.616Z,16068
2017-04-20T09:47:41.835Z,15788
2017-04-20T09:48:54.378Z,14648
2017-04-20T09:50:06.924Z,13768
2017-04-20T09:51:19.150Z,14488
2017-04-20T09:52:31.376Z,15572
2017-04-20T09:53:43.912Z,17192
2017-04-20T09:54:56.143Z,19072
2017-04-20T09:56:08.388Z,20928
2017-04-20T09:57:20.949Z,22176
2017-04-20T09:58:32.553Z,23104
2017-04-20T09:59:44.772Z,23776
2017-04-20T10:00:56.420Z,24224
2017-04-20T10:02:08.066Z,25408
2017-04-20T10:03:20.583Z,22528
2017-04-20T10:04:32.951Z,21216
2017-04-20T10:05:45.027Z,20320
2017-04-20T10:06:56.328Z,19872
2017-04-20T10:08:08.267Z,19744
2017-04-20T10:09:20.208Z,19584
2017-04-20T10:10:32.458Z,19776
2017-04-20T10:11:44.080Z,19104
2017-04-20T10:12:56.626Z,19488
2017-04-20T10:14:08.575Z,20384
2017-04-20T10:15:20.796Z,20640
2017-04-20T10:16:32.713Z,21504
2017-04-20T10:17:44.017Z,40192
2017-04-20T10:18:56.232Z,22464
2017-04-20T10:20:08.157Z,16740
2017-04-20T10:21:20.349Z,15836
2017-04-20T10:22:32.263Z,16184
2017-04-20T10:23:44.195Z,14188
2017-04-20T10:24:56.135Z,11036
2017-04-20T10:26:08.331Z,12264
2017-04-20T10:27:20.726Z,58112
2017-04-20T10:28:32.640Z,78944
2017-04-20T10:29:44.273Z,77472
2017-04-20T10:30:56.819Z,81920
2017-04-20T10:32:08.715Z,60512
2017-04-20T10:33:20.634Z,15380
2017-04-20T10:34:31.973Z,35808
2017-04-20T10:35:44.174Z,82208
2017-04-20T10:36:56.392Z,84160
2017-04-20T10:38:07.997Z,85920
2017-04-20T10:39:20.217Z,85440
2017-04-20T10:40:32.435Z,85056
2017-04-20T10:41:43.485Z,82336
2017-04-20T10:42:55.120Z,81216
2017-04-20T10:44:07.370Z,79968
2017-04-20T10:45:19.894Z,81280
2017-04-20T10:46:31.212Z,83680
2017-04-20T10:47:42.560Z,83872
2017-04-20T10:48:54.328Z,85280
2017-04-20T10:50:06.249Z,26848
2017-04-20T10:51:17.563Z,24960
2017-04-20T10:52:29.237Z,62688
2017-04-20T10:53:41.462Z,39840
2017-04-20T10:54:53.385Z,16932
2017-04-20T10:56:04.725Z,16752
2017-04-20T10:57:16.355Z,17984
2017-04-20T10:58:28.881Z,18688
2017-04-20T10:59:41.119Z,19520
2017-04-20T11:00:53.030Z,19296
2017-04-20T11:02:04.976Z,19040
2017-04-20T11:03:17.205Z,89216
2017-04-20T11:04:28.806Z,90048
2017-04-20T11:05:41.050Z,89600
2017-04-20T11:06:53.288Z,89952
2017-04-20T11:08:04.921Z,86560
2017-04-20T11:09:16.964Z,87712
2017-04-20T11:10:28.926Z,87648
2017-04-20T11:11:41.210Z,85696
2017-04-20T11:12:53.189Z,79488
2017-04-20T11:14:05.123Z,79584
2017-04-20T11:15:16.168Z,79872
2017-04-20T11:16:28.686Z,79904
2017-04-20T11:17:40.611Z,83328
2017-04-20T11:18:53.496Z,25472
2017-04-20T11:20:04.828Z,24640
2017-04-20T11:21:16.762Z,87392
2017-04-20T11:22:28.707Z,52448
2017-04-20T11:23:40.910Z,31104
2017-04-20T11:24:52.828Z,93856
2017-04-20T11:26:04.803Z,78016
2017-04-20T11:27:16.728Z,31904
2017-04-20T11:28:28.065Z,21760
2017-04-20T11:29:40.570Z,19584
2017-04-20T11:30:52.240Z,17888
2017-04-20T11:32:03.611Z,16512
2017-04-20T11:33:15.560Z,16020
2017-04-20T11:34:27.199Z,15632
2017-04-20T11:35:39.137Z,15916
2017-04-20T11:36:51.370Z,16840
2017-04-20T11:38:02.992Z,18592
2017-04-20T11:39:14.637Z,79104
2017-04-20T11:40:26.581Z,78112
2017-04-20T11:41:38.217Z,80608
2017-04-20T11:42:50.475Z,81632
2017-04-20T11:44:02.414Z,80800
2017-04-20T11:45:14.930Z,77920
2017-04-20T11:46:27.159Z,76992
2017-04-20T11:47:39.381Z,79712
2017-04-20T11:48:51.326Z,75296
2017-04-20T11:50:02.975Z,72256
2017-04-20T11:51:15.218Z,82528
2017-04-20T11:52:26.868Z,83200
2017-04-20T11:53:38.813Z,35872
2017-04-20T11:54:50.736Z,28928
2017-04-20T11:56:02.677Z,40480
2017-04-20T11:57:14.319Z,31744
2017-04-20T11:58:26.265Z,38080
2017-04-20T11:59:38.511Z,71840
2017-04-20T12:00:50.456Z,23648
2017-04-20T12:02:02.405Z,19648
2017-04-20T12:03:14.032Z,18496
2017-04-20T12:04:25.672Z,17536
2017-04-20T12:05:37.274Z,16352
2017-04-20T12:06:48.592Z,15368
2017-04-20T12:08:00.257Z,14612
2017-04-20T12:09:12.510Z,14136
2017-04-20T12:10:24.486Z,13700
2017-04-20T12:11:36.127Z,13468
2017-04-20T12:12:48.375Z,13488
2017-04-20T12:14:00.566Z,13852
2017-04-20T12:15:12.812Z,14176
2017-04-20T12:16:24.785Z,14404
2017-04-20T12:17:36.953Z,14440
2017-04-20T12:18:48.567Z,14972
2017-04-20T12:20:00.195Z,15816
2017-04-20T12:21:12.719Z,16592
2017-04-20T12:22:24.064Z,16612
2017-04-20T12:23:35.683Z,17044
2017-04-20T12:24:47.026Z,17536
2017-04-20T12:25:58.950Z,17984
2017-04-20T12:27:11.471Z,18784
2017-04-20T12:28:24.018Z,19648
2017-04-20T12:29:36.538Z,20096
2017-04-20T12:30:48.784Z,20416
2017-04-20T12:32:00.706Z,20576
2017-04-20T12:33:12.304Z,20288
2017-04-20T12:34:24.539Z,19968
2017-04-20T12:35:36.170Z,19968
2017-04-20T12:36:48.655Z,19776
2017-04-20T12:38:00.464Z,19520
2017-04-20T12:39:12.679Z,19680
2017-04-20T12:40:24.629Z,19776
2017-04-20T12:41:36.851Z,20544
2017-04-20T12:42:49.389Z,21280
2017-04-20T12:44:01.614Z,21760
2017-04-20T12:45:13.865Z,22080
2017-04-20T12:46:25.810Z,22176
2017-04-20T12:47:38.369Z,21312
2017-04-20T12:48:50.600Z,19136
2017-04-20T12:50:02.219Z,17728
2017-04-20T12:51:14.717Z,16420
2017-04-20T12:52:26.960Z,15320
2017-04-20T12:53:39.498Z,14304
2017-04-20T12:54:51.432Z,13264
2017-04-20T12:56:03.674Z,12744
2017-04-20T12:57:15.600Z,12952
2017-04-20T12:58:28.319Z,12652
2017-04-20T12:59:40.867Z,12404
2017-04-20T13:00:52.802Z,12244
2017-04-20T13:02:04.724Z,12424
2017-04-20T13:03:16.950Z,12840
2017-04-20T13:04:29.188Z,13024
2017-04-20T13:05:41.420Z,13156
2017-04-20T13:06:53.668Z,13560
2017-04-20T13:08:06.208Z,14244
2017-04-20T13:09:18.730Z,15136
2017-04-20T13:10:31.248Z,15660
2017-04-20T13:11:43.203Z,15908
2017-04-20T13:12:55.441Z,16436
2017-04-20T13:14:07.665Z,17168
2017-04-20T13:15:20.233Z,18176
2017-04-20T13:16:32.153Z,18912
2017-04-20T13:17:44.056Z,19264
2017-04-20T13:18:56.578Z,19072
2017-04-20T13:20:09.120Z,18720
2017-04-20T13:21:21.643Z,18016
2017-04-20T13:22:33.576Z,17064
2017-04-20T13:23:46.100Z,16108
2017-04-20T13:24:58.630Z,15488
2017-04-20T13:26:10.263Z,14504
2017-04-20T13:27:22.798Z,13584
2017-04-20T13:28:35.030Z,12528
2017-04-20T13:29:47.259Z,11588
2017-04-20T13:30:59.172Z,11088
2017-04-20T13:32:11.702Z,10800
2017-04-20T13:33:23.921Z,10808
2017-04-20T13:34:36.147Z,10896
2017-04-20T13:35:48.081Z,10892
2017-04-20T13:37:00.639Z,10660
2017-04-20T13:38:13.185Z,10240
2017-04-20T13:39:25.746Z,10272
2017-04-20T13:40:37.677Z,10100
2017-04-20T13:41:49.622Z,9660
2017-04-20T13:43:01.256Z,9316
2017-04-20T13:44:13.761Z,9256
2017-04-20T13:45:26.013Z,9280
2017-04-20T13:46:38.580Z,9616
2017-04-20T13:47:50.515Z,9816
2017-04-20T13:49:03.050Z,10096
2017-04-20T13:50:15.594Z,10356
2017-04-20T13:51:27.836Z,10612
2017-04-20T13:52:40.362Z,11000
2017-04-20T13:53:52.583Z,11448
2017-04-20T13:55:05.126Z,12036
2017-04-20T13:56:16.774Z,12820
2017-04-20T13:57:28.712Z,13984
2017-04-20T13:58:41.253Z,14964
2017-04-20T13:59:53.388Z,15552
2017-04-20T14:01:05.778Z,16080
2017-04-20T14:02:17.693Z,16628
2017-04-20T14:03:29.920Z,16988
2017-04-20T14:04:42.444Z,17536
2017-04-20T14:05:54.370Z,17856
2017-04-20T14:07:06.309Z,17696
2017-04-20T14:08:18.508Z,16948
2017-04-20T14:09:31.032Z,16356
2017-04-20T14:10:43.263Z,16568
2017-04-20T14:11:55.183Z,16928
2017-04-20T14:13:07.708Z,17952
2017-04-20T14:14:19.937Z,18784
2017-04-20T14:15:31.901Z,18752
2017-04-20T14:16:44.442Z,19776
2017-04-20T14:17:56.677Z,20736
2017-04-20T14:19:09.196Z,20864
2017-04-20T14:20:21.491Z,20928
2017-04-20T14:21:34.204Z,20640
2017-04-20T14:22:46.735Z,20096
2017-04-20T14:23:59.296Z,18912
2017-04-20T14:25:11.821Z,17984
2017-04-20T14:26:24.338Z,16200
2017-04-20T14:27:36.880Z,14464
2017-04-20T14:28:49.409Z,13288
2017-04-20T14:30:01.929Z,12244
2017-04-20T14:31:14.457Z,11624
2017-04-20T14:32:26.999Z,11780
2017-04-20T14:33:39.212Z,12056
2017-04-20T14:34:51.414Z,12608
2017-04-20T14:36:03.940Z,12896
2017-04-20T14:37:15.859Z,12676
2017-04-20T14:38:28.306Z,11956
2017-04-20T14:39:40.544Z,12144
2017-04-20T14:40:53.071Z,11680
2017-04-20T14:42:05.317Z,11052
2017-04-20T14:43:17.862Z,10344
2017-04-20T14:44:30.117Z,9332
2017-04-20T14:45:42.345Z,9052
2017-04-20T14:46:54.891Z,9132
2017-04-20T14:48:07.422Z,9344
2017-04-20T14:49:19.969Z,9160
2017-04-20T14:50:32.215Z,9148
2017-04-20T14:51:44.757Z,9640
2017-04-20T14:52:57.006Z,9244
2017-04-20T14:54:09.552Z,9652
2017-04-20T14:55:22.061Z,9828
2017-04-20T14:56:34.308Z,9548
2017-04-20T14:57:46.535Z,9056
2017-04-20T14:58:58.734Z,8640
2017-04-20T15:00:11.035Z,8168
2017-04-20T15:01:23.274Z,7468
2017-04-20T15:02:35.800Z,6880
2017-04-20T15:03:48.320Z,7160
2017-04-20T15:05:00.837Z,7160
2017-04-20T15:06:13.087Z,7108
2017-04-20T15:07:25.611Z,6968
2017-04-20T15:08:37.854Z,6768
2017-04-20T15:09:50.366Z,6708
2017-04-20T15:11:02.900Z,6732
2017-04-20T15:12:15.429Z,6752
2017-04-20T15:13:27.683Z,6744
2017-04-20T15:14:39.933Z,6768
2017-04-20T15:15:52.485Z,6892
2017-04-20T15:17:04.725Z,7164
2017-04-20T15:18:16.669Z,7484
2017-04-20T15:19:29.331Z,7776
2017-04-20T15:20:41.235Z,8168
2017-04-20T15:21:54.029Z,8616
2017-04-20T15:23:06.300Z,9096
2017-04-20T15:24:18.514Z,9660
2017-04-20T15:25:31.042Z,9976
2017-04-20T15:26:43.559Z,10288
2017-04-20T15:27:55.493Z,10256
2017-04-20T15:29:07.751Z,10144
2017-04-20T15:30:19.980Z,10228
2017-04-20T15:31:32.239Z,10208
2017-04-20T15:32:44.149Z,10412
2017-04-20T15:33:56.682Z,10576
2017-04-20T15:35:09.213Z,11024
2017-04-20T15:36:21.461Z,11680
2017-04-20T15:37:33.676Z,12136
2017-04-20T15:38:45.597Z,12232
2017-04-20T15:39:58.096Z,12528
2017-04-20T15:41:10.331Z,12428
2017-04-20T15:42:22.743Z,12324
2017-04-20T15:43:34.701Z,11944
2017-04-20T15:44:47.231Z,11460
2017-04-20T15:45:59.473Z,11044
2017-04-20T15:47:12.014Z,10724
2017-04-20T15:48:24.515Z,10384
2017-04-20T15:49:36.410Z,10204
2017-04-20T15:50:48.909Z,10116
2017-04-20T15:52:01.453Z,9988
2017-04-20T15:53:13.977Z,9724
2017-04-20T15:54:26.522Z,9548
2017-04-20T15:55:38.746Z,9480
2017-04-20T15:56:51.268Z,9508
2017-04-20T15:58:03.186Z,9716
2017-04-20T15:59:15.120Z,9752
2017-04-20T16:00:27.649Z,9536
2017-04-20T16:01:39.572Z,9396
2017-04-20T16:02:52.361Z,9256
2017-04-20T16:04:04.867Z,9268
2017-04-20T16:05:17.410Z,9440
2017-04-20T16:06:29.953Z,9676
2017-04-20T16:07:42.471Z,9584
2017-04-20T16:08:54.999Z,9460